Time;durP1;ratioP1;P1;durP2;ratioP2;P2;SDS_P1;SDS_P2;PMS_P1;PMS_P2;Temp;Humidity;BMP_temperature;BMP_pressure;BME280_temperature;BME280_humidity;BME280_pressure;Samples;Min_cycle;Max_cycle;Signal;HPM_P1;HPM_P2
2022/10/12 00:00:01;;;;;;;30.50;17.95;;;;;;;13.40;100.00;63382.94;4969167;29;20204;-81
2022/10/12 00:02:29;;;;;;;33.25;18.52;;;;;;;13.52;100.00;63397.41;4962613;29;20534;-80
2022/10/12 00:04:57;;;;;;;34.30;19.05;;;;;;;13.38;100.00;63380.84;4950354;29;20197;-78
2022/10/12 00:07:23;;;;;;;27.15;18.35;;;;;;;13.46;100.00;63391.72;4958457;29;20239;-80
2022/10/12 00:09:50;;;;;;;26.63;18.48;;;;;;;13.47;100.00;63387.63;4967203;29;20263;-79
2022/10/12 00:12:18;;;;;;;25.50;18.35;;;;;;;13.38;100.00;63380.84;4962314;29;20220;-82
2022/10/12 00:14:45;;;;;;;26.05;18.35;;;;;;;13.37;100.00;63379.31;4969181;29;20196;-80
2022/10/12 00:17:12;;;;;;;30.65;18.38;;;;;;;13.39;100.00;63379.31;4967272;28;20228;-80
2022/10/12 00:19:40;;;;;;;25.95;18.02;;;;;;;13.51;100.00;63394.34;4968312;29;20344;-79
2022/10/12 00:22:08;;;;;;;25.17;16.90;;;;;;;13.53;100.00;63391.28;4948666;29;20221;-78
2022/10/12 00:24:35;;;;;;;22.98;16.20;;;;;;;13.61;100.00;63404.19;4954229;29;20268;-78
2022/10/12 00:27:02;;;;;;;22.02;16.20;;;;;;;13.66;100.00;63409.38;4965357;28;20489;-79
2022/10/12 00:29:28;;;;;;;20.88;14.82;;;;;;;13.67;100.00;63405.81;4960694;29;20255;-79
2022/10/12 00:31:55;;;;;;;14.43;11.93;;;;;;;13.81;100.00;63424.94;4946835;29;20213;-78
2022/10/12 00:34:22;;;;;;;15.93;12.00;;;;;;;13.84;100.00;63426.03;4966096;29;20501;-78
2022/10/12 00:36:50;;;;;;;15.45;10.98;;;;;;;13.93;100.00;63432.28;4966697;29;20252;-77
2022/10/12 00:39:17;;;;;;;15.85;11.70;;;;;;;13.93;100.00;63434.84;4965303;28;20209;-79
2022/10/12 00:41:44;;;;;;;12.80;10.18;;;;;;;13.75;100.00;63418.75;4964054;29;20205;-78
2022/10/12 00:44:45;;;;;;;13.43;10.65;;;;;;;13.75;100.00;63416.69;4967145;29;20219;-79
2022/10/12 00:47:27;;;;;;;17.08;12.95;;;;;;;13.75;100.00;63414.13;4885427;29;20219;-79
2022/10/12 00:50:00;;;;;;;13.52;11.23;;;;;;;13.69;100.00;63410.47;4882601;29;20364;-79
2022/10/12 00:52:35;;;;;;;18.15;10.98;;;;;;;13.68;100.00;63414.03;4935596;29;20296;-78
2022/10/12 00:55:04;;;;;;;16.80;12.70;;;;;;;13.54;100.00;63402.56;4967218;29;20223;-77
2022/10/12 00:57:31;;;;;;;14.60;11.25;;;;;;;13.56;100.00;63396.47;4965108;28;20221;-78
2022/10/12 01:00:01;;;;;;;14.52;11.68;;;;;;;13.57;100.00;63400.56;4967541;29;20474;-79
2022/10/12 01:02:31;;;;;;;12.48;10.95;;;;;;;13.59;100.00;63404.69;4967122;28;20224;-79
2022/10/12 01:04:58;;;;;;;15.15;10.23;;;;;;;13.72;100.00;63413.03;4969577;29;20207;-80
2022/10/12 01:07:26;;;;;;;13.00;10.43;;;;;;;13.70;100.00;63411.00;4968810;29;20224;-80
2022/10/12 01:09:54;;;;;;;17.20;10.90;;;;;;;13.78;100.00;63417.25;4967223;29;20252;-78
2022/10/12 01:12:22;;;;;;;12.82;9.63;;;;;;;13.82;100.00;63426.00;4964034;29;20221;-77
2022/10/12 01:14:49;;;;;;;11.30;10.10;;;;;;;13.76;100.00;63422.31;4965380;29;20204;-77
2022/10/12 01:17:31;;;;;;;9.93;8.70;;;;;;;13.84;100.00;63428.06;4946124;29;20237;-78
2022/10/12 01:20:38;;;;;;;12.80;9.68;;;;;;;13.89;100.00;63431.22;4950290;29;20428;-78
2022/10/12 01:23:29;;;;;;;13.65;11.00;;;;;;;13.77;100.00;63423.88;4966772;29;20457;-77
2022/10/12 01:26:16;;;;;;;18.42;12.93;;;;;;;13.37;100.00;63384.94;4964901;29;20207;-78
2022/10/12 01:28:52;;;;;;;18.98;12.77;;;;;;;13.25;100.00;63364.28;4964427;29;20255;-79
2022/10/12 01:31:28;;;;;;;16.85;13.32;;;;;;;13.33;100.00;63372.59;4966347;29;20271;-78
2022/10/12 01:33:59;;;;;;;18.77;13.55;;;;;;;13.44;100.00;63392.19;4965106;29;20275;-79
2022/10/12 01:36:33;;;;;;;18.33;12.93;;;;;;;13.39;100.00;63379.31;4964370;29;20212;-78
2022/10/12 01:39:07;;;;;;;18.98;13.63;;;;;;;13.43;100.00;63388.06;4946955;29;20269;-78
2022/10/12 01:41:37;;;;;;;16.95;12.70;;;;;;;13.29;100.00;63366.41;4964654;29;20201;-78
2022/10/12 01:44:05;;;;;;;16.63;13.32;;;;;;;13.32;100.00;63369.00;4964226;28;20225;-78
2022/10/12 01:46:47;;;;;;;19.73;12.85;;;;;;;13.45;100.00;63385.56;4955489;29;20445;-78
2022/10/12 01:49:17;;;;;;;17.80;13.68;;;;;;;13.54;100.00;63396.94;4964956;29;20296;-80
2022/10/12 01:52:06;;;;;;;15.70;12.70;;;;;;;13.57;100.00;63395.44;4966858;28;20509;-78
2022/10/12 01:54:43;;;;;;;19.20;12.60;;;;;;;13.59;100.00;63399.56;4957249;29;20446;-79
2022/10/12 01:57:20;;;;;;;17.70;12.20;;;;;;;13.64;100.00;63404.75;4971101;29;20220;-78
2022/10/12 02:00:01;;;;;;;17.35;12.90;;;;;;;13.69;100.00;63412.50;4968783;29;20206;-79
2022/10/12 02:02:40;;;;;;;17.17;13.05;;;;;;;13.65;100.00;63401.19;4967936;29;20474;-79
2022/10/12 02:05:14;;;;;;;15.55;12.10;;;;;;;13.43;100.00;63386.03;4957633;29;21572;-78
2022/10/12 02:07:44;;;;;;;16.92;12.30;;;;;;;13.32;100.00;63374.63;4967688;29;20252;-77
2022/10/12 02:10:18;;;;;;;19.63;12.50;;;;;;;13.20;100.00;63359.09;4966756;29;20233;-79
2022/10/12 02:12:49;;;;;;;18.23;13.40;;;;;;;13.12;100.00;63353.34;4950317;29;20269;-78
2022/10/12 02:15:18;;;;;;;19.05;12.88;;;;;;;12.95;100.00;63328.56;4953828;29;20208;-79
2022/10/12 02:17:49;;;;;;;20.20;13.70;;;;;;;12.95;100.00;63336.22;4968157;29;20469;-79
2022/10/12 02:20:18;;;;;;;15.45;12.38;;;;;;;12.93;100.00;63336.19;4970059;29;20209;-78
2022/10/12 02:22:48;;;;;;;16.92;12.25;;;;;;;12.77;100.00;63320.63;4966166;28;20590;-79
2022/10/12 02:25:20;;;;;;;18.55;12.88;;;;;;;12.85;100.00;63323.31;4968761;29;20208;-78
2022/10/12 02:27:49;;;;;;;20.23;13.68;;;;;;;12.95;100.00;63333.16;4967353;29;20225;-79
2022/10/12 02:30:16;;;;;;;14.32;12.32;;;;;;;13.05;100.00;63346.63;4949719;29;20244;-79
2022/10/12 02:32:53;;;;;;;18.48;13.48;;;;;;;13.12;100.00;63351.31;4950317;29;20264;-78
2022/10/12 02:35:27;;;;;;;21.48;14.27;;;;;;;13.15;100.00;63361.59;4955799;29;20200;-79
2022/10/12 02:37:56;;;;;;;23.40;14.75;;;;;;;13.26;100.00;63370.44;4968869;28;20283;-79
2022/10/12 02:40:29;;;;;;;27.65;15.73;;;;;;;13.27;100.00;63374.53;4968396;29;20201;-78
2022/10/12 02:43:01;;;;;;;23.77;16.90;;;;;;;13.34;100.00;63378.75;4968437;29;20293;-79
2022/10/12 02:45:29;;;;;;;23.95;17.10;;;;;;;13.38;100.00;63380.84;4967882;29;20315;-77
2022/10/12 02:48:00;;;;;;;24.17;16.73;;;;;;;13.39;100.00;63383.94;4957641;29;20225;-79
2022/10/12 02:50:28;;;;;;;24.20;16.17;;;;;;;13.32;100.00;63374.63;4968733;29;20303;-78
2022/10/12 02:52:57;;;;;;;29.70;16.30;;;;;;;13.43;100.00;63386.03;4969167;28;20228;-78
2022/10/12 02:55:24;;;;;;;22.83;16.13;;;;;;;13.47;100.00;63387.13;4962504;29;20224;-79
2022/10/12 02:57:50;;;;;;;23.23;16.85;;;;;;;13.46;100.00;63386.59;4952243;29;20221;-79
2022/10/12 03:00:18;;;;;;;21.60;15.93;;;;;;;13.43;100.00;63386.03;4961526;29;20252;-79
2022/10/12 03:02:45;;;;;;;23.35;16.15;;;;;;;13.48;100.00;63385.59;4968977;28;20420;-79
2022/10/12 03:05:13;;;;;;;23.75;16.75;;;;;;;13.52;100.00;63395.38;4967078;29;20205;-78
2022/10/12 03:07:40;;;;;;;23.20;15.93;;;;;;;13.48;100.00;63393.25;4968344;29;20456;-78
2022/10/12 03:10:07;;;;;;;24.08;16.95;;;;;;;13.35;100.00;63374.66;4969744;29;20228;-83
2022/10/12 03:12:34;;;;;;;25.75;16.42;;;;;;;13.38;100.00;63380.84;4971466;28;20227;-79
2022/10/12 03:15:02;;;;;;;24.40;17.20;;;;;;;13.36;100.00;63378.78;4967035;29;20507;-81
2022/10/12 03:17:28;;;;;;;28.15;18.10;;;;;;;13.30;100.00;63369.47;4970790;29;20253;-78
2022/10/12 03:19:55;;;;;;;22.10;15.93;;;;;;;13.39;100.00;63384.44;4965845;29;20267;-78
2022/10/12 03:22:24;;;;;;;26.83;16.65;;;;;;;13.34;100.00;63378.75;4949238;29;20248;-78
2022/10/12 03:24:50;;;;;;;28.20;17.38;;;;;;;13.31;100.00;63367.94;4949861;29;20201;-79
2022/10/12 03:27:17;;;;;;;25.10;17.75;;;;;;;13.25;100.00;63369.94;4952835;28;20220;-78
2022/10/12 03:29:44;;;;;;;22.75;15.80;;;;;;;13.30;100.00;63372.03;4968578;29;20414;-78
2022/10/12 03:32:11;;;;;;;22.48;15.65;;;;;;;13.33;100.00;63375.16;4959085;29;20273;-79
2022/10/12 03:34:37;;;;;;;33.20;20.65;;;;;;;13.40;100.00;63379.84;4950295;29;20201;-79
2022/10/12 03:37:04;;;;;;;31.65;20.50;;;;;;;13.42;100.00;63387.56;4966431;29;20276;-79
2022/10/12 03:39:32;;;;;;;29.23;19.00;;;;;;;13.44;100.00;63381.94;4967460;29;20211;-78
2022/10/12 03:41:59;;;;;;;26.60;18.80;;;;;;;13.51;100.00;63394.34;4966974;28;20213;-78
2022/10/12 03:44:26;;;;;;;28.08;18.65;;;;;;;13.49;100.00;63389.72;4966567;29;20212;-79
2022/10/12 03:46:53;;;;;;;22.48;16.80;;;;;;;13.36;100.00;63375.69;4964355;29;20216;-79
2022/10/12 03:49:19;;;;;;;26.33;17.27;;;;;;;13.22;100.00;63363.75;4966774;29;20291;-79
2022/10/12 03:51:46;;;;;;;26.75;18.05;;;;;;;13.26;100.00;63365.84;4957256;29;20540;-79
2022/10/12 03:54:13;;;;;;;26.23;18.05;;;;;;;13.36;100.00;63380.81;4953488;29;20620;-79
2022/10/12 03:56:41;;;;;;;24.25;17.33;;;;;;;13.32;100.00;63376.66;4960694;29;20521;-79
2022/10/12 03:59:09;;;;;;;22.70;16.67;;;;;;;13.19;100.00;63360.63;4967139;29;20259;-79
2022/10/12 04:01:35;;;;;;;27.13;17.08;;;;;;;13.26;100.00;63365.31;4967606;29;20201;-78
2022/10/12 04:04:02;;;;;;;29.33;18.02;;;;;;;13.33;100.00;63375.16;4966712;28;20271;-79
2022/10/12 04:06:29;;;;;;;23.45;15.93;;;;;;;13.27;100.00;63374.53;4964008;29;20205;-79
2022/10/12 04:08:56;;;;;;;23.45;15.73;;;;;;;13.26;100.00;63368.41;4966826;28;20247;-79
2022/10/12 04:11:22;;;;;;;21.70;15.55;;;;;;;13.23;100.00;63362.22;4966692;29;20240;-78
2022/10/12 04:13:51;;;;;;;18.48;15.15;;;;;;;13.22;100.00;63369.34;4967022;28;20221;-80
2022/10/12 04:16:18;;;;;;;22.67;14.52;;;;;;;13.30;100.00;63372.56;4966958;29;20501;-77
2022/10/12 04:18:44;;;;;;;20.15;14.38;;;;;;;13.44;100.00;63389.63;4967213;29;20402;-79
2022/10/12 04:21:14;;;;;;;21.30;13.23;;;;;;;13.43;100.00;63388.06;4966684;29;20208;-79
2022/10/12 04:23:41;;;;;;;20.95;14.13;;;;;;;13.38;100.00;63380.31;4956670;29;20221;-80
2022/10/12 04:26:08;;;;;;;19.85;13.27;;;;;;;13.43;100.00;63382.97;4950393;29;20368;-80
2022/10/12 04:28:35;;;;;;;18.40;13.95;;;;;;;13.42;100.00;63381.94;4959259;29;20231;-78
2022/10/12 04:31:04;;;;;;;17.20;13.27;;;;;;;13.41;100.00;63383.44;4967948;29;20236;-78
2022/10/12 04:33:30;;;;;;;17.00;13.23;;;;;;;13.41;100.00;63381.41;4950918;29;20221;-79
2022/10/12 04:35:57;;;;;;;16.90;12.85;;;;;;;13.43;100.00;63383.47;4960317;29;20211;-79
2022/10/12 04:38:24;;;;;;;17.30;12.73;;;;;;;13.47;100.00;63392.75;4966327;29;20224;-79
2022/10/12 04:40:51;;;;;;;16.77;13.25;;;;;;;13.50;100.00;63387.66;4965255;29;20217;-79
2022/10/12 04:43:18;;;;;;;18.75;13.52;;;;;;;13.51;100.00;63391.28;4954171;29;20244;-79
2022/10/12 04:45:44;;;;;;;17.02;12.60;;;;;;;13.51;100.00;63393.81;4967122;29;20209;-78
2022/10/12 04:48:13;;;;;;;18.90;13.10;;;;;;;13.49;100.00;63391.75;4967308;29;20283;-78
2022/10/12 04:50:39;;;;;;;16.00;12.35;;;;;;;13.50;100.00;63390.75;4957967;29;20334;-78
2022/10/12 04:53:06;;;;;;;18.70;12.93;;;;;;;13.55;100.00;63400.53;4948321;29;20312;-78
2022/10/12 04:55:33;;;;;;;15.93;11.35;;;;;;;13.54;100.00;63397.47;4962010;29;20264;-78
2022/10/12 04:58:00;;;;;;;20.75;12.63;;;;;;;13.54;100.00;63396.94;4966687;29;20225;-78
2022/10/12 05:00:27;;;;;;;15.93;12.45;;;;;;;13.47;100.00;63392.22;4966629;28;20204;-77
2022/10/12 05:02:54;;;;;;;15.48;12.07;;;;;;;13.50;100.00;63387.66;4964850;29;20378;-77
2022/10/12 05:05:22;;;;;;;22.23;13.98;;;;;;;13.64;100.00;63405.28;4964260;29;20509;-78
2022/10/12 05:07:49;;;;;;;16.38;12.35;;;;;;;13.69;100.00;63412.50;4965206;29;20375;-78
2022/10/12 05:10:16;;;;;;;17.20;12.20;;;;;;;13.68;100.00;63409.41;4965369;29;20399;-78
2022/10/12 05:12:43;;;;;;;17.00;13.40;;;;;;;13.62;100.00;63407.78;4965298;28;20227;-78
2022/10/12 05:15:11;;;;;;;16.98;13.02;;;;;;;13.56;100.00;63396.97;4963839;29;20409;-77
2022/10/12 05:17:38;;;;;;;19.27;12.75;;;;;;;13.39;100.00;63381.88;4957094;29;20213;-78
2022/10/12 05:20:06;;;;;;;17.00;12.85;;;;;;;13.27;100.00;63363.81;4946192;29;20228;-76
2022/10/12 05:22:34;;;;;;;18.88;13.13;;;;;;;13.23;100.00;63367.31;4966240;28;20220;-77
2022/10/12 05:25:00;;;;;;;16.73;12.25;;;;;;;13.21;100.00;63365.25;4963307;28;20247;-78
2022/10/12 05:27:27;;;;;;;19.23;13.48;;;;;;;13.14;100.00;63352.88;4953392;29;20225;-79
2022/10/12 05:29:54;;;;;;;22.58;15.75;;;;;;;13.22;100.00;63366.81;4949752;29;20252;-77
2022/10/12 05:32:21;;;;;;;25.25;17.55;;;;;;;13.21;100.00;63360.66;4950206;29;20470;-77
2022/10/12 05:34:48;;;;;;;30.35;19.35;;;;;;;13.00;100.00;63341.41;4963249;29;20228;-77
2022/10/12 05:37:14;;;;;;;35.55;21.92;;;;;;;12.80;100.00;63320.66;4963256;28;20229;-77
2022/10/12 05:39:43;;;;;;;32.83;21.23;;;;;;;12.84;100.00;63326.84;4968153;29;20209;-78
2022/10/12 05:42:09;;;;;;;36.38;22.70;;;;;;;12.88;100.00;63325.88;4966985;28;20267;-77
2022/10/12 05:44:36;;;;;;;41.15;24.42;;;;;;;12.89;100.00;63332.53;4966684;29;20240;-77
2022/10/12 05:47:03;;;;;;;39.80;23.50;;;;;;;12.89;100.00;63335.09;4967594;28;20236;-78
2022/10/12 05:49:30;;;;;;;38.00;24.70;;;;;;;12.92;100.00;63330.56;4967764;29;20553;-78
2022/10/12 05:51:57;;;;;;;43.38;25.95;;;;;;;13.09;100.00;63350.78;4965845;29;20200;-78
2022/10/12 05:54:24;;;;;;;45.65;25.52;;;;;;;13.18;100.00;63359.59;4961726;29;20196;-78
2022/10/12 05:56:52;;;;;;;47.55;26.45;;;;;;;13.20;100.00;63362.16;4967632;28;20197;-77
2022/10/12 05:59:19;;;;;;;36.97;23.42;;;;;;;13.34;100.00;63373.63;4965946;29;20192;-77
2022/10/12 06:01:46;;;;;;;44.25;24.27;;;;;;;13.54;100.00;63396.94;4965247;28;20235;-78
2022/10/12 06:04:12;;;;;;;36.65;22.20;;;;;;;13.69;100.00;63410.47;4963627;29;20209;-78
2022/10/12 06:06:39;;;;;;;42.92;24.20;;;;;;;13.76;100.00;63422.84;4964445;28;20208;-78
2022/10/12 06:09:06;;;;;;;34.88;21.17;;;;;;;13.91;100.00;63433.28;4965846;29;20200;-77
2022/10/12 06:11:34;;;;;;;41.20;21.92;;;;;;;14.00;100.00;63444.16;4966689;29;20244;-78
2022/10/12 06:14:02;;;;;;;38.65;21.40;;;;;;;14.12;100.00;63459.16;4961443;28;20235;-77
2022/10/12 06:16:29;;;;;;;34.72;22.40;;;;;;;14.07;100.00;63451.94;4965932;28;20245;-77
2022/10/12 06:18:56;;;;;;;35.90;20.50;;;;;;;14.07;100.00;63451.41;4965455;29;20216;-77
2022/10/12 06:21:23;;;;;;;41.03;22.90;;;;;;;13.88;100.00;63430.19;4968593;29;20208;-78
2022/10/12 06:23:50;;;;;;;36.85;21.85;;;;;;;13.85;100.00;63427.06;4963815;29;20272;-77
2022/10/12 06:26:17;;;;;;;39.47;23.27;;;;;;;14.00;100.00;63447.25;4966291;29;20393;-77
2022/10/12 06:28:44;;;;;;;34.70;22.27;;;;;;;14.13;100.00;63455.63;4967301;29;20248;-78
2022/10/12 06:31:12;;;;;;;37.80;22.80;;;;;;;14.13;100.00;63453.06;4965466;29;20330;-77
2022/10/12 06:33:39;;;;;;;38.22;23.00;;;;;;;14.23;100.00;63465.47;4967468;28;20540;-77
2022/10/12 06:36:06;;;;;;;35.10;22.40;;;;;;;14.12;100.00;63456.59;4964741;29;20371;-76
2022/10/12 06:38:33;;;;;;;40.55;23.60;;;;;;;14.21;100.00;63465.97;4954106;29;20225;-77
2022/10/12 06:41:00;;;;;;;34.95;21.77;;;;;;;14.10;100.00;63457.13;4964621;29;20205;-78
2022/10/12 06:43:27;;;;;;;41.25;21.67;;;;;;;14.05;100.00;63447.31;4966654;29;20466;-77
2022/10/12 06:45:53;;;;;;;39.58;21.50;;;;;;;14.21;100.00;63463.41;4960405;29;20869;-77
2022/10/12 06:48:22;;;;;;;34.05;21.60;;;;;;;14.44;100.00;63489.88;4966911;29;20267;-76
2022/10/12 06:50:48;;;;;;;33.85;20.08;;;;;;;14.52;100.00;63496.13;4966832;29;20229;-77
2022/10/12 06:53:15;;;;;;;29.13;20.75;;;;;;;14.58;100.00;63504.91;4965324;28;20267;-77
2022/10/12 06:55:42;;;;;;;36.20;21.45;;;;;;;14.40;100.00;63485.72;4951196;29;20206;-77
2022/10/12 06:58:09;;;;;;;33.10;20.02;;;;;;;14.52;100.00;63498.69;4955695;29;20247;-77
2022/10/12 07:00:37;;;;;;;32.90;19.60;;;;;;;14.72;100.00;63518.97;4967942;29;20205;-78
2022/10/12 07:03:04;;;;;;;32.03;19.88;;;;;;;14.79;100.00;63526.75;4964439;28;20225;-77
2022/10/12 07:05:32;;;;;;;28.98;19.02;;;;;;;14.94;100.00;63539.75;4948310;29;20211;-77
2022/10/12 07:07:59;;;;;;;27.58;19.05;;;;;;;15.00;100.00;63545.47;4958685;29;20239;-78
2022/10/12 07:10:27;;;;;;;26.55;18.08;;;;;;;15.14;100.00;63562.06;4966999;29;20240;-78
2022/10/12 07:12:53;;;;;;;28.75;18.17;;;;;;;15.26;100.00;63574.53;4965117;28;20529;-78
2022/10/12 07:15:20;;;;;;;27.73;19.20;;;;;;;15.34;100.00;63580.28;4966571;29;20196;-77
2022/10/12 07:17:47;;;;;;;26.50;17.45;;;;;;;15.20;100.00;63566.28;4966530;29;20295;-78
2022/10/12 07:20:14;;;;;;;28.88;17.60;;;;;;;15.24;100.00;63577.59;4965581;29;20536;-78
2022/10/12 07:22:43;;;;;;;26.88;17.40;;;;;;;15.28;100.00;63571.47;4951284;29;20236;-77
2022/10/12 07:25:10;;;;;;;29.98;18.42;;;;;;;14.98;100.00;63543.41;4947072;29;20560;-78
2022/10/12 07:27:36;;;;;;;30.30;19.33;;;;;;;14.86;100.00;63536.56;4948256;29;20280;-78
2022/10/12 07:30:05;;;;;;;29.55;18.65;;;;;;;14.93;100.00;63545.88;4947711;29;20506;-77
2022/10/12 07:32:32;;;;;;;25.77;19.48;;;;;;;14.94;100.00;63541.81;4946680;29;20589;-77
2022/10/12 07:34:58;;;;;;;33.28;18.52;;;;;;;14.87;100.00;63531.97;4947454;29;20264;-78
2022/10/12 07:37:25;;;;;;;27.92;17.52;;;;;;;14.91;100.00;63541.25;4946912;29;20613;-77
2022/10/12 07:39:56;;;;;;;27.75;16.77;;;;;;;15.05;100.00;63556.31;4952865;29;20208;-77
2022/10/12 07:42:23;;;;;;;28.90;17.60;;;;;;;15.23;100.00;63571.41;4966126;28;20227;-77
2022/10/12 07:44:49;;;;;;;25.10;17.77;;;;;;;15.21;100.00;63566.78;4966886;29;20239;-77
2022/10/12 07:47:18;;;;;;;28.65;16.63;;;;;;;15.13;100.00;63561.56;4966501;28;20224;-77
2022/10/12 07:49:45;;;;;;;25.08;16.55;;;;;;;15.35;100.00;63581.31;4964834;29;20209;-77
2022/10/12 07:52:11;;;;;;;25.95;15.65;;;;;;;15.22;100.00;63567.81;4966909;28;20236;-77
2022/10/12 07:54:38;;;;;;;22.17;15.00;;;;;;;14.97;100.00;63544.94;4967311;29;20258;-78
2022/10/12 07:57:07;;;;;;;20.13;14.02;;;;;;;14.91;100.00;63539.22;4966069;28;20231;-77
2022/10/12 07:59:34;;;;;;;21.05;15.48;;;;;;;14.92;100.00;63537.69;4947628;29;20490;-78
2022/10/12 08:02:01;;;;;;;19.25;14.05;;;;;;;15.10;100.00;63553.28;4946849;29;20201;-78
2022/10/12 08:04:27;;;;;;;16.90;13.35;;;;;;;14.97;100.00;63544.94;4947358;29;20249;-78
2022/10/12 08:06:54;;;;;;;20.67;14.75;;;;;;;14.86;100.00;63536.06;4947903;29;20268;-76
2022/10/12 08:09:21;;;;;;;19.75;14.15;;;;;;;15.01;100.00;63549.09;4947735;29;20205;-78
2022/10/12 08:11:48;;;;;;;17.67;13.57;;;;;;;15.25;100.00;63571.47;4947210;29;20232;-77
2022/10/12 08:14:16;;;;;;;19.10;12.85;;;;;;;15.51;100.00;63603.13;4947278;29;20501;-78
2022/10/12 08:16:44;;;;;;;22.35;11.80;;;;;;;15.53;100.00;63600.06;4947164;29;20216;-78
2022/10/12 08:19:11;;;;;;;14.93;12.45;;;;;;;15.46;100.00;63595.34;4947418;29;20260;-77
2022/10/12 08:21:37;;;;;;;22.00;13.10;;;;;;;15.44;100.00;63586.09;4949094;29;20248;-78
2022/10/12 08:24:05;;;;;;;18.50;12.57;;;;;;;15.73;100.00;63621.38;4947292;29;20276;-77
2022/10/12 08:26:32;;;;;;;15.00;11.55;;;;;;;16.00;100.00;63651.47;4947158;29;20378;-77
2022/10/12 08:28:59;;;;;;;13.70;11.13;;;;;;;16.18;100.00;63667.66;4947210;29;20517;-78
2022/10/12 08:31:27;;;;;;;12.20;10.07;;;;;;;16.16;100.00;63666.09;4946639;29;20236;-77
2022/10/12 08:33:53;;;;;;;14.73;10.18;;;;;;;16.19;100.00;63676.38;4947069;29;20559;-78
2022/10/12 08:36:20;;;;;;;14.18;10.13;;;;;;;16.35;100.00;63684.78;4947723;29;20506;-76
2022/10/12 08:38:52;;;;;;;14.45;9.73;;;;;;;16.35;100.00;63687.38;4946547;29;20273;-77
2022/10/12 08:41:28;;;;;;;12.68;10.05;;;;;;;16.42;100.00;63692.09;4947277;29;20200;-77
2022/10/12 08:44:10;;;;;;;12.48;10.45;;;;;;;16.23;100.00;63674.88;4947391;29;20235;-77
2022/10/12 08:46:39;;;;;;;11.23;9.68;;;;;;;16.27;100.00;63676.47;4947594;29;20208;-77
2022/10/12 08:49:10;;;;;;;11.70;10.48;;;;;;;16.33;100.00;63685.28;4947252;29;20232;-77
2022/10/12 08:51:46;;;;;;;15.35;10.65;;;;;;;16.09;100.00;63658.81;4947202;29;20488;-77
2022/10/12 08:54:15;;;;;;;12.88;10.77;;;;;;;16.11;100.00;63668.06;4952764;29;20203;-77
2022/10/12 08:56:42;;;;;;;14.52;10.40;;;;;;;16.37;100.00;63687.41;4962721;29;20219;-77
2022/10/12 08:59:13;;;;;;;15.57;10.57;;;;;;;16.54;100.00;63707.69;4946809;29;20200;-77
2022/10/12 09:01:53;;;;;;;13.60;10.10;;;;;;;16.66;100.00;63714.50;4945695;29;20189;-77
2022/10/12 09:04:44;;;;;;;13.40;11.85;;;;;;;16.77;100.00;63734.19;4946613;29;20204;-77
2022/10/12 09:07:14;;;;;;;14.95;10.20;;;;;;;16.83;99.00;63745.56;4954517;28;20227;-76
2022/10/12 09:09:58;;;;;;;13.20;10.35;;;;;;;16.98;98.08;63750.88;4966381;28;20272;-76
2022/10/12 09:12:39;;;;;;;11.27;9.73;;;;;;;17.05;96.29;63758.19;4964063;28;20227;-77
2022/10/12 09:15:13;;;;;;;16.50;11.68;;;;;;;17.21;96.22;63774.84;4965048;29;20211;-77
2022/10/12 09:17:46;;;;;;;16.85;12.15;;;;;;;17.22;95.57;63775.34;4958432;29;20540;-77
2022/10/12 09:20:18;;;;;;;14.80;10.52;;;;;;;17.34;94.27;63790.94;4960028;29;20260;-77
2022/10/12 09:22:49;;;;;;;15.45;10.85;;;;;;;17.26;95.69;63782.59;4963314;28;20283;-76
2022/10/12 09:25:17;;;;;;;13.90;11.60;;;;;;;17.52;95.60;63811.75;4955671;29;20200;-77
2022/10/12 09:27:46;;;;;;;16.08;11.15;;;;;;;17.81;94.15;63836.78;4957078;28;20528;-77
2022/10/12 09:30:14;;;;;;;14.80;10.45;;;;;;;18.03;92.40;63864.34;4964073;29;20208;-76
2022/10/12 09:33:09;;;;;;;15.18;11.00;;;;;;;18.20;91.67;63882.06;4963958;28;20259;-77
2022/10/12 09:35:36;;;;;;;16.73;11.05;;;;;;;18.28;89.67;63888.34;4959353;29;20264;-77
2022/10/12 09:38:04;;;;;;;11.77;9.88;;;;;;;18.56;88.12;63917.00;4964594;28;20251;-77
2022/10/12 09:40:32;;;;;;;12.50;11.05;;;;;;;18.53;87.93;63915.94;4963405;29;20255;-76
2022/10/12 09:43:00;;;;;;;14.75;11.52;;;;;;;18.65;87.67;63925.88;4964481;28;20227;-77
2022/10/12 09:45:29;;;;;;;16.50;11.82;;;;;;;18.68;87.56;63932.09;4960170;28;20411;-76
2022/10/12 09:48:17;;;;;;;16.73;13.68;;;;;;;18.64;88.00;63922.25;4964059;28;20540;-76
2022/10/12 09:50:47;;;;;;;15.80;12.63;;;;;;;18.68;88.68;63926.41;4959289;28;20196;-77
2022/10/12 09:53:21;;;;;;;16.45;11.57;;;;;;;18.74;88.03;63937.84;4965280;28;20235;-78
2022/10/12 09:55:58;;;;;;;15.23;11.77;;;;;;;18.77;88.55;63935.78;4965562;29;20259;-77
2022/10/12 09:58:26;;;;;;;14.05;11.85;;;;;;;18.74;87.64;63935.25;4963747;28;20247;-79
2022/10/12 10:01:20;;;;;;;15.60;11.10;;;;;;;18.78;87.71;63944.56;4946792;29;20239;-78
2022/10/12 10:03:51;;;;;;;13.45;11.10;;;;;;;18.55;89.40;63912.88;4946151;29;20224;-77
2022/10/12 10:06:25;;;;;;;13.13;9.95;;;;;;;18.32;89.90;63886.81;4957470;29;20192;-77
2022/10/12 10:08:52;;;;;;;12.30;10.20;;;;;;;18.40;90.22;63903.44;4959697;29;20489;-78
2022/10/12 10:11:23;;;;;;;11.68;9.75;;;;;;;18.35;89.75;63889.94;4965214;28;20532;-77
2022/10/12 10:13:52;;;;;;;13.07;9.02;;;;;;;17.85;90.18;63840.44;4960511;28;20224;-77
2022/10/12 10:16:21;;;;;;;11.77;10.57;;;;;;;17.83;92.57;63846.09;4968722;29;20200;-77
2022/10/12 10:18:56;;;;;;;10.98;8.48;;;;;;;17.16;94.70;63774.25;4967630;28;20216;-77
2022/10/12 10:21:29;;;;;;;12.10;10.43;;;;;;;17.45;95.74;63801.34;4969120;29;20211;-77
2022/10/12 10:23:58;;;;;;;10.85;9.75;;;;;;;17.55;93.99;63812.28;4952079;29;20220;-77
2022/10/12 10:26:27;;;;;;;15.43;9.57;;;;;;;17.71;93.04;63828.44;4961381;29;20247;-78
2022/10/12 10:28:58;;;;;;;17.75;11.63;;;;;;;17.82;93.68;63842.47;4968996;28;20228;-77
2022/10/12 10:31:26;;;;;;;10.90;9.80;;;;;;;18.10;90.58;63869.06;4967228;29;20537;-78
2022/10/12 10:34:20;;;;;;;10.70;9.10;;;;;;;17.57;93.38;63814.38;4968451;29;20220;-77
2022/10/12 10:36:49;;;;;;;10.63;9.38;;;;;;;17.74;92.14;63834.16;4967842;29;20203;-78
2022/10/12 10:39:20;;;;;;;12.75;9.48;;;;;;;17.95;92.51;63848.81;4968499;29;20431;-77
2022/10/12 10:41:47;;;;;;;10.20;8.80;;;;;;;18.28;91.06;63887.81;4956129;28;20224;-79
2022/10/12 10:44:24;;;;;;;10.50;9.40;;;;;;;18.73;86.72;63934.72;4967678;29;20244;-77
2022/10/12 10:46:52;;;;;;;9.45;8.18;;;;;;;18.88;83.68;63944.69;4967816;28;20381;-77
2022/10/12 10:49:28;;;;;;;8.05;7.30;;;;;;;19.00;82.64;63962.34;4962629;29;20416;-77
2022/10/12 10:51:58;;;;;;;8.07;7.28;;;;;;;19.11;82.48;63971.22;4965969;28;20263;-78
2022/10/12 10:54:28;;;;;;;8.55;7.47;;;;;;;19.45;80.87;64011.88;4955085;29;20562;-78
2022/10/12 10:57:00;;;;;;;8.75;7.25;;;;;;;19.41;80.42;64005.63;4958536;28;20204;-79
2022/10/12 10:59:37;;;;;;;8.63;7.45;;;;;;;19.51;77.89;64012.97;4968416;28;20239;-78
2022/10/12 11:02:16;;;;;;;8.38;7.35;;;;;;;19.72;76.25;64037.47;4968673;28;20270;-78
2022/10/12 11:04:48;;;;;;;7.82;7.03;;;;;;;19.69;76.24;64034.31;4966582;29;20203;-77
2022/10/12 11:07:21;;;;;;;7.15;6.43;;;;;;;19.59;72.94;64020.81;4965443;28;20230;-78
2022/10/12 11:09:53;;;;;;;7.05;6.45;;;;;;;19.95;73.48;64058.84;4974442;28;20262;-77
2022/10/12 11:12:25;;;;;;;6.82;6.22;;;;;;;20.12;72.89;64076.09;4972564;28;20251;-77
2022/10/12 11:14:56;;;;;;;7.72;7.13;;;;;;;20.36;73.52;64101.16;4965453;28;20220;-77
2022/10/12 11:17:29;;;;;;;7.93;7.15;;;;;;;20.66;72.49;64132.97;4965784;28;20226;-78
2022/10/12 11:20:06;;;;;;;7.72;7.03;;;;;;;20.85;68.97;64157.47;4966632;29;20235;-78
2022/10/12 11:22:40;;;;;;;11.13;8.18;;;;;;;20.90;70.50;64159.56;4963271;28;20219;-77